»·PEaware :: QXE2311 KJAC-KDEN

QXE2311 :: KJAC-KDEN

FLIGHT INFORMATION

Flight Status: Arrived
Operator:
Horizon Air
More flights by this operator :: More flights under this callsign
Pilot: Kyle A. (14988)
Aircraft: DEHAVILLAND DASH 8 400
(DH8D)
More flights by this aircraft type
Origin: KJAC Jackson Hole
United States
Destination: KDEN Denver Intl
United States
More flights between these airports :: More routes between these airports
Route: ALPIN2 KICNE OCS RAMMS6
File this flight plan on PilotEdge
Remarks:
Altitude:
(Current/Filed)
23,000ft
Speed:
(Current/Filed)
311kts
Departed: 05-Mar-18 02:29 PM
Arrived: 05-Mar-18 03:47 PM
Distance/Time
Traveled:
353nm/1:18
Distance/Time
To Go:
Arrived

Flight Plot

Page will automatically refresh every two minutes.

Flight plan parsing failed; only flown route is shown


Map Options




Map Legend


Flown Route
Filed Route
Departure Airport
Arrival Airport
Navaid (VOR, NDB)
Fix

Horizontal Profiles

Position Reports

Time Latitude Longitude Heading Altitude Ground
Speed
05-Mar-18 13:55 43.604256 -110.736687 109 6458ft 0kts
05-Mar-18 13:56 43.604256 -110.736687 109 6458ft 0kts
05-Mar-18 13:57 43.604256 -110.736687 109 6458ft 0kts
05-Mar-18 13:58 43.604256 -110.736687 109 6458ft 0kts
05-Mar-18 13:59 43.604256 -110.736687 109 6458ft 0kts
05-Mar-18 14:00 43.604256 -110.736687 109 6458ft 0kts
05-Mar-18 14:01 43.604256 -110.736687 109 6458ft 0kts
05-Mar-18 14:02 43.604256 -110.736687 109 6458ft 0kts
05-Mar-18 14:03 43.604256 -110.736687 109 6458ft 0kts
05-Mar-18 14:04 43.604256 -110.736687 109 6458ft 0kts
05-Mar-18 14:05 43.604256 -110.736687 109 6458ft 0kts
05-Mar-18 14:06 43.604256 -110.736687 109 6458ft 0kts
05-Mar-18 14:07 43.604256 -110.736687 109 6458ft 0kts
05-Mar-18 14:08 43.604256 -110.736687 109 6458ft 0kts
05-Mar-18 14:09 43.604256 -110.736687 109 6458ft 0kts
05-Mar-18 14:10 43.604256 -110.736687 109 6458ft 0kts
05-Mar-18 14:11 43.604256 -110.736687 109 6458ft 0kts
05-Mar-18 14:12 43.604256 -110.736687 109 6458ft 0kts
05-Mar-18 14:13 43.604256 -110.736687 109 6458ft 0kts
05-Mar-18 14:14 43.604256 -110.736687 109 6458ft 0kts
05-Mar-18 14:15 43.604256 -110.736687 109 6458ft 0kts
05-Mar-18 14:16 43.604256 -110.736687 109 6458ft 0kts
05-Mar-18 14:17 43.604319 -110.736932 109 6458ft 2kts
05-Mar-18 14:18 43.604504 -110.737651 109 6458ft 0kts
05-Mar-18 14:19 43.604504 -110.737651 109 6458ft 0kts
05-Mar-18 14:20 43.604504 -110.737651 109 6458ft 0kts
05-Mar-18 14:21 43.604504 -110.737651 109 6458ft 0kts
05-Mar-18 14:22 43.604504 -110.737651 109 6458ft 0kts
05-Mar-18 14:23 43.604504 -110.737651 109 6458ft 0kts
05-Mar-18 14:24 43.604504 -110.737651 109 6458ft 0kts
05-Mar-18 14:25 43.604504 -110.737651 109 6458ft 0kts
05-Mar-18 14:26 43.604504 -110.737651 109 6458ft 0kts
05-Mar-18 14:27 43.604504 -110.737651 109 6458ft 0kts
05-Mar-18 14:28 43.604504 -110.737651 109 6458ft 0kts
05-Mar-18 14:29 43.604505 -110.737656 109 6458ft 0kts
05-Mar-18 14:30 43.605776 -110.736789 19 6458ft 17kts
05-Mar-18 14:31 43.610471 -110.734503 19 6458ft 16kts
05-Mar-18 14:32 43.614891 -110.732527 330 6458ft 8kts
05-Mar-18 14:33 43.615077 -110.732891 285 6458ft 0kts
05-Mar-18 14:34 43.615077 -110.732891 285 6458ft 0kts
05-Mar-18 14:35 43.614857 -110.734077 196 6458ft 8kts
05-Mar-18 14:36 43.592409 -110.745007 198 6880ft 147kts
05-Mar-18 14:37 43.545541 -110.769539 200 8827ft 195kts
05-Mar-18 14:38 43.491924 -110.793929 199 11255ft 211kts
05-Mar-18 14:39 43.440964 -110.830923 221 13654ft 211kts
05-Mar-18 14:40 43.385238 -110.868092 209 15668ft 226kts
05-Mar-18 14:41 43.326349 -110.904140 210 17383ft 233kts
05-Mar-18 14:42 43.264576 -110.939226 212 18967ft 239kts
05-Mar-18 14:43 43.199870 -110.955029 157 20387ft 277kts
05-Mar-18 14:44 43.137936 -110.887572 140 21685ft 289kts
05-Mar-18 14:45 43.077594 -110.811760 139 22865ft 296kts
05-Mar-18 14:46 43.016370 -110.735308 139 23925ft 302kts
05-Mar-18 14:47 42.953932 -110.657586 140 24854ft 308kts
05-Mar-18 14:48 42.888678 -110.576741 140 25226ft 332kts
05-Mar-18 14:49 42.817727 -110.489240 140 25230ft 357kts
05-Mar-18 14:50 42.743485 -110.397660 140 25212ft 365kts
05-Mar-18 14:51 42.668186 -110.305140 141 25200ft 369kts
05-Mar-18 14:52 42.592148 -110.212194 140 25192ft 373kts
05-Mar-18 14:53 42.515375 -110.118630 140 25189ft 375kts
05-Mar-18 14:54 42.438574 -110.025200 141 25189ft 377kts
05-Mar-18 14:55 42.360750 -109.931107 141 25188ft 375kts
05-Mar-18 14:56 42.283512 -109.837844 141 25190ft 372kts
05-Mar-18 14:57 42.206795 -109.745615 141 25191ft 369kts
05-Mar-18 14:58 42.130336 -109.653991 142 25192ft 367kts
05-Mar-18 14:59 42.054445 -109.563356 142 25194ft 366kts
05-Mar-18 15:00 41.978568 -109.472956 142 25195ft 366kts
05-Mar-18 15:01 41.903034 -109.382892 143 25196ft 366kts
05-Mar-18 15:02 41.826985 -109.293313 143 25197ft 366kts
05-Mar-18 15:03 41.751045 -109.203769 143 25197ft 367kts
05-Mar-18 15:04 41.676234 -109.115912 143 25197ft 367kts
05-Mar-18 15:05 41.599801 -109.024385 135 25194ft 371kts
05-Mar-18 15:06 41.563352 -108.897197 103 25198ft 375kts
05-Mar-18 15:07 41.535290 -108.764592 107 25197ft 374kts
05-Mar-18 15:08 41.504957 -108.632825 106 25196ft 373kts
05-Mar-18 15:09 41.475226 -108.500842 106 25194ft 373kts
05-Mar-18 15:10 41.445214 -108.368175 106 25191ft 373kts
05-Mar-18 15:11 41.420283 -108.258153 107 25189ft 373kts
05-Mar-18 15:12 41.390102 -108.126394 107 25185ft 373kts
05-Mar-18 15:13 41.354629 -107.972350 107 25181ft 373kts
05-Mar-18 15:14 41.329241 -107.862621 107 25178ft 373kts
05-Mar-18 15:15 41.298462 -107.730373 108 25173ft 374kts
05-Mar-18 15:16 41.262419 -107.576444 108 25171ft 375kts
05-Mar-18 15:17 41.236723 -107.467325 108 25174ft 375kts
05-Mar-18 15:18 41.199688 -107.313265 108 25178ft 376kts
05-Mar-18 15:19 41.173641 -107.202771 107 25175ft 377kts
05-Mar-18 15:20 41.142296 -107.070108 108 25158ft 379kts
05-Mar-18 15:21 41.109997 -106.936739 108 25158ft 380kts
05-Mar-18 15:22 41.077597 -106.803451 108 25148ft 381kts
05-Mar-18 15:23 41.045219 -106.670118 108 25133ft 382kts
05-Mar-18 15:24 41.012377 -106.536286 108 25131ft 385kts
05-Mar-18 15:25 40.979006 -106.400943 108 24735ft 396kts
05-Mar-18 15:26 40.944182 -106.261182 108 23666ft 404kts
05-Mar-18 15:27 40.908997 -106.120285 108 22632ft 406kts
05-Mar-18 15:28 40.873450 -105.978175 108 21584ft 406kts
05-Mar-18 15:29 40.837803 -105.837593 108 20544ft 405kts
05-Mar-18 15:30 40.802396 -105.697770 107 19507ft 401kts
05-Mar-18 15:31 40.767482 -105.561021 107 18489ft 384kts
05-Mar-18 15:32 40.704976 -105.456149 149 17502ft 364kts
05-Mar-18 15:33 40.624497 -105.377812 145 16555ft 354kts
05-Mar-18 15:34 40.549526 -105.297605 145 15650ft 342kts
05-Mar-18 15:35 40.477602 -105.221914 146 15027ft 323kts
05-Mar-18 15:36 40.410293 -105.152333 146 14840ft 302kts
05-Mar-18 15:37 40.342411 -105.082692 146 13398ft 314kts
05-Mar-18 15:38 40.276832 -105.014738 145 13026ft 292kts
05-Mar-18 15:39 40.212744 -104.948952 146 13024ft 301kts
05-Mar-18 15:40 40.144231 -104.878982 146 12362ft 325kts
05-Mar-18 15:41 40.083508 -104.816665 146 11486ft 304kts
05-Mar-18 15:42 40.011599 -104.743033 145 11049ft 274kts
05-Mar-18 15:43 39.976539 -104.671876 97 10880ft 248kts
05-Mar-18 15:44 39.961995 -104.571851 98 9667ft 267kts
05-Mar-18 15:45 39.948639 -104.478037 97 8535ft 257kts
05-Mar-18 15:46 39.936040 -104.389602 97 8035ft 233kts
05-Mar-18 15:47 39.911425 -104.315630 160 8010ft 224kts
05-Mar-18 15:48 39.871108 -104.347469 261 8017ft 175kts
05-Mar-18 15:49 39.872718 -104.411740 280 8032ft 190kts
05-Mar-18 15:50 39.876540 -104.478836 272 7522ft 189kts
05-Mar-18 15:51 39.876818 -104.540219 267 6749ft 130kts
05-Mar-18 15:52 39.877056 -104.583365 272 5978ft 114kts
05-Mar-18 15:53 39.877288 -104.624252 271 5439ft 93kts
05-Mar-18 15:54 39.877465 -104.640422 270 5438ft 29kts
05-Mar-18 15:55 39.877574 -104.653955 271 5438ft 44kts
05-Mar-18 15:56 39.875960 -104.662088 180 5438ft 18kts
05-Mar-18 15:57 39.869090 -104.662212 180 5438ft 34kts
05-Mar-18 15:58 39.860369 -104.662312 180 5438ft 29kts
05-Mar-18 15:59 39.853237 -104.662483 202 5438ft 8kts
05-Mar-18 16:00 39.852737 -104.667873 264 5438ft 17kts
05-Mar-18 16:01 39.853434 -104.670150 0 5438ft 0kts
05-Mar-18 16:02 39.853434 -104.670150 0 5438ft 0kts
05-Mar-18 16:03 39.853434 -104.670150 0 5438ft 0kts
05-Mar-18 16:04 39.853434 -104.670150 0 5438ft 0kts
05-Mar-18 16:05 39.853434 -104.670150 0 5438ft 0kts
05-Mar-18 16:06 39.853434 -104.670150 0 5438ft 0kts
05-Mar-18 16:07 39.853434 -104.670150 0 5438ft 0kts
05-Mar-18 16:08 39.853434 -104.670150 0 5438ft 0kts

Navigation Log

Ident Type
Flight plan parsing failed, navigation log unavailable